Country
Station

 

Weather  for  North Platte, North Platte Regional Airport  -  United States    United States

  
16 °C (61 °F)
    
 
 

Current METAR for North Platte, North Platte Regional Airport is :

KLBF 192053Z AUTO 12015G23KT 10SM CLR 16/M01 A3029 RMK AO2 SLP267 T01561006 56033

 

This is a report for North Platte, North Platte Regional Airport - United States.
 
The report was made 23 minutes ago, at 20:53 UTC .
The wind was blowing at a speed of 7.7 meters per second (17.3 miles per hour) with gusts up to 11.8 meters per second (26.5 miles per hour) from east/southeast (120°).
 
The temperature was 16 °C (61 °F), with a dew-point at -1 °C (30 °F).
The atmospheric pressure was 1026 hPa (30.29 inHg).
The relative humidity was 31.2%.
 
The sky was clear.
 
The overall visibility was 16.1 kilometers (10.0 miles).
 

 
 
 
 

Country :   A   B   C   D   E   F   G   H   I   J   K   L   M   N   O   P   Q   R   S   T   U   V   W   Y   Z

 

Site Info  |  Disclaimer  |  Credits  |  Privacy
Contact us  |  Add to favorites
© 2013-2018 METARs - All rights reserved